createdAt,value
2018-01-08T00:00:42.544Z,-1.14
2018-01-08T00:01:42.694Z,-1.16
2018-01-08T00:02:42.583Z,-1.17
2018-01-08T00:03:42.554Z,-1.25
2018-01-08T00:04:42.604Z,-1.21
2018-01-08T00:05:42.602Z,-1.25
2018-01-08T00:06:42.976Z,-1.22
2018-01-08T00:07:43.035Z,-1.24
2018-01-08T00:08:43.329Z,-1.21
2018-01-08T00:09:42.920Z,-1.25
2018-01-08T00:10:43.356Z,-1.3
2018-01-08T00:11:43.711Z,-1.43
2018-01-08T00:12:43.761Z,-1.38
2018-01-08T00:13:43.743Z,-1.31
2018-01-08T00:14:43.893Z,-1.38
2018-01-08T00:15:44.096Z,-1.46
2018-01-08T00:16:44.903Z,-1.31
2018-01-08T00:17:44.318Z,-1.35
2018-01-08T00:18:44.496Z,-1.38
2018-01-08T00:19:44.690Z,-1.38
2018-01-08T00:20:44.316Z,-1.37
2018-01-08T00:21:44.948Z,-1.45
2018-01-08T00:22:44.712Z,-1.46
2018-01-08T00:23:45.154Z,-1.46
2018-01-08T00:24:45.533Z,-1.49
2018-01-08T00:25:45.580Z,-1.52
2018-01-08T00:26:45.563Z,-1.46
2018-01-08T00:27:46.037Z,-1.43
2018-01-08T00:28:45.495Z,-1.45
2018-01-08T00:29:45.776Z,-1.5
2018-01-08T00:30:46.227Z,-1.48
2018-01-08T00:31:46.355Z,-1.48
2018-01-08T00:32:46.758Z,-1.49
2018-01-08T00:33:46.817Z,-1.48
2018-01-08T00:34:47.159Z,-1.48
2018-01-08T00:35:47.492Z,-1.49
2018-01-08T00:36:48.273Z,-1.38
2018-01-08T00:37:47.366Z,-1.45
2018-01-08T00:38:48.830Z,-1.42
2018-01-08T00:39:47.592Z,-1.48
2018-01-08T00:40:47.440Z,-1.48
2018-01-08T00:41:47.386Z,-1.45
2018-01-08T00:42:48.075Z,-1.45
2018-01-08T00:43:47.650Z,-1.38
2018-01-08T00:44:48.355Z,-1.42
2018-01-08T00:45:48.357Z,-1.43
2018-01-08T00:46:48.364Z,-1.35
2018-01-08T00:47:48.502Z,-1.43
2018-01-08T00:48:48.533Z,-1.42
2018-01-08T00:49:48.262Z,-1.42
2018-01-08T00:50:48.970Z,-1.5
2018-01-08T00:51:48.269Z,-1.53
2018-01-08T00:52:49.724Z,-1.53
2018-01-08T00:53:48.404Z,-1.53
2018-01-08T00:54:49.893Z,-1.5
2018-01-08T00:55:49.644Z,-1.61
2018-01-08T00:56:49.269Z,-1.64
2018-01-08T00:57:49.695Z,-1.64
2018-01-08T00:58:49.875Z,-1.63
2018-01-08T00:59:49.110Z,-1.52
2018-01-08T01:00:49.546Z,-1.58
2018-01-08T01:01:49.630Z,-1.56
2018-01-08T01:03:04.311Z,-1.49
2018-01-08T01:03:49.923Z,-1.6
2018-01-08T01:04:49.595Z,-1.66
2018-01-08T01:06:50.364Z,-1.66
2018-01-08T01:07:50.202Z,-1.63
2018-01-08T01:08:50.147Z,-1.64
2018-01-08T01:09:49.722Z,-1.61
2018-01-08T01:10:50.232Z,-1.67
2018-01-08T01:11:48.869Z,-1.58
2018-01-08T01:12:50.197Z,-1.67
2018-01-08T01:13:49.037Z,-1.63
2018-01-08T01:14:50.431Z,-1.78
2018-01-08T01:15:49.697Z,-1.74
2018-01-08T01:16:50.229Z,-1.78
2018-01-08T01:17:50.563Z,-1.76
2018-01-08T01:18:49.218Z,-1.82
2018-01-08T01:19:48.791Z,-1.79
2018-01-08T01:20:49.014Z,-1.81
2018-01-08T01:21:49.238Z,-1.78
2018-01-08T01:22:49.227Z,-1.81
2018-01-08T01:23:48.986Z,-1.78
2018-01-08T01:24:49.530Z,-1.73
2018-01-08T01:25:49.393Z,-1.85
2018-01-08T01:26:50.362Z,-1.78
2018-01-08T01:27:51.095Z,-1.74
2018-01-08T01:28:49.942Z,-1.79
2018-01-08T01:29:50.692Z,-1.82
2018-01-08T01:30:51.547Z,-1.79
2018-01-08T01:31:51.641Z,-1.84
2018-01-08T01:32:51.489Z,-1.88
2018-01-08T01:33:51.025Z,-1.89
2018-01-08T01:34:50.782Z,-1.79
2018-01-08T01:35:51.115Z,-1.85
2018-01-08T01:36:50.325Z,-1.89
2018-01-08T01:37:50.767Z,-1.91
2018-01-08T01:38:49.998Z,-1.89
2018-01-08T01:39:50.163Z,-1.89
2018-01-08T01:40:50.173Z,-1.99
2018-01-08T01:41:50.293Z,-2.02
2018-01-08T01:42:50.369Z,-1.96
2018-01-08T01:43:50.087Z,-2.06
2018-01-08T01:44:50.564Z,-2.05
2018-01-08T01:45:50.567Z,-2
2018-01-08T01:46:50.591Z,-2.06
2018-01-08T01:47:50.928Z,-2.02
2018-01-08T01:48:50.792Z,-2.09
2018-01-08T01:49:50.857Z,-2.06
2018-01-08T01:50:50.895Z,-2.1
2018-01-08T01:51:50.865Z,-2.09
2018-01-08T01:52:50.915Z,-2.09
2018-01-08T01:53:51.270Z,-1.99
2018-01-08T01:54:51.644Z,-2.1
2018-01-08T01:55:51.711Z,-2.02
2018-01-08T01:56:52.029Z,-2.06
2018-01-08T01:57:52.481Z,-2.03
2018-01-08T01:58:51.848Z,-2.02
2018-01-08T01:59:51.865Z,-1.96
2018-01-08T02:00:51.518Z,-2
2018-01-08T02:01:51.856Z,-2.12
2018-01-08T02:02:51.579Z,-2
2018-01-08T02:03:51.832Z,-2.02
2018-01-08T02:04:51.747Z,-2.17
2018-01-08T02:05:52.008Z,-2.05
2018-01-08T02:06:52.880Z,-1.97
2018-01-08T02:07:51.809Z,-1.97
2018-01-08T02:08:51.711Z,-1.94
2018-01-08T02:09:51.920Z,-1.94
2018-01-08T02:10:52.090Z,-1.97
2018-01-08T02:11:52.523Z,-2
2018-01-08T02:12:52.962Z,-1.97
2018-01-08T02:13:53.266Z,-1.99
2018-01-08T02:14:53.753Z,-2
2018-01-08T02:15:53.836Z,-2.03
2018-01-08T02:16:53.741Z,-2
2018-01-08T02:17:53.839Z,-1.99
2018-01-08T02:18:53.732Z,-1.97
2018-01-08T02:19:53.804Z,-2.02
2018-01-08T02:20:54.244Z,-1.92
2018-01-08T02:21:53.933Z,-2.06
2018-01-08T02:22:54.005Z,-2.02
2018-01-08T02:23:54.018Z,-2.12
2018-01-08T02:24:54.263Z,-1.99
2018-01-08T02:25:54.004Z,-2.09
2018-01-08T02:26:54.056Z,-2.09
2018-01-08T02:27:55.196Z,-2.07
2018-01-08T02:28:54.484Z,-2.06
2018-01-08T02:29:55.001Z,-2.09
2018-01-08T02:30:54.913Z,-2.07
2018-01-08T02:33:00.200Z,-2.12
2018-01-08T02:34:00.198Z,-2.07
2018-01-08T02:34:59.942Z,-2.14
2018-01-08T02:36:00.412Z,-2.09
2018-01-08T02:37:00.508Z,-2.05
2018-01-08T02:38:00.538Z,-1.97
2018-01-08T02:39:00.905Z,-2.05
2018-01-08T02:40:01.018Z,-1.99
2018-01-08T02:41:01.298Z,-2.06
2018-01-08T02:42:01.419Z,-2.12
2018-01-08T02:43:01.584Z,-2.07
2018-01-08T02:44:01.760Z,-2.1
2018-01-08T02:45:02.433Z,-2.1
2018-01-08T02:46:02.456Z,-2.1
2018-01-08T02:47:02.457Z,-2.03
2018-01-08T02:48:02.481Z,-2.03
2018-01-08T02:49:02.616Z,-2.17
2018-01-08T02:50:03.115Z,-2.12
2018-01-08T02:51:03.304Z,-2.15
2018-01-08T02:52:03.677Z,-2.15
2018-01-08T02:53:03.313Z,-2.17
2018-01-08T02:54:04.172Z,-2.12
2018-01-08T02:55:04.149Z,-2.17
2018-01-08T02:56:04.428Z,-2.1
2018-01-08T02:57:04.549Z,-2.14
2018-01-08T02:58:04.573Z,-2.09
2018-01-08T02:59:04.608Z,-2.17
2018-01-08T03:00:19.220Z,-2.2
2018-01-08T03:01:04.356Z,-2.2
2018-01-08T03:02:04.641Z,-2.17
2018-01-08T03:03:04.407Z,-2.2
2018-01-08T03:04:04.152Z,-2.27
2018-01-08T03:05:04.857Z,-2.34
2018-01-08T03:06:04.721Z,-2.34
2018-01-08T03:07:04.736Z,-2.37
2018-01-08T03:08:04.763Z,-2.25
2018-01-08T03:09:04.637Z,-2.2
2018-01-08T03:10:05.336Z,-2.27
2018-01-08T03:11:05.034Z,-2.25
2018-01-08T03:12:05.170Z,-2.25
2018-01-08T03:13:05.584Z,-2.27
2018-01-08T03:14:05.734Z,-2.21
2018-01-08T03:15:05.777Z,-2.25
2018-01-08T03:16:05.916Z,-2.32
2018-01-08T03:17:05.934Z,-2.3
2018-01-08T03:18:06.274Z,-2.39
2018-01-08T03:19:06.402Z,-2.4
2018-01-08T03:20:06.547Z,-2.36
2018-01-08T03:21:06.970Z,-2.42
2018-01-08T03:22:06.638Z,-2.4
2018-01-08T03:23:07.367Z,-2.34
2018-01-08T03:24:07.762Z,-2.36
2018-01-08T03:25:07.856Z,-2.37
2018-01-08T03:26:07.542Z,-2.36
2018-01-08T03:27:07.425Z,-2.36
2018-01-08T03:28:08.215Z,-2.42
2018-01-08T03:29:08.244Z,-2.46
2018-01-08T03:30:08.026Z,-2.57
2018-01-08T03:31:08.228Z,-2.6
2018-01-08T03:32:08.230Z,-2.61
2018-01-08T03:33:08.834Z,-2.62
2018-01-08T03:34:08.520Z,-2.57
2018-01-08T03:35:09.035Z,-2.54
2018-01-08T03:36:08.889Z,-2.57
2018-01-08T03:37:09.261Z,-2.53
2018-01-08T03:38:08.746Z,-2.55
2018-01-08T03:39:09.017Z,-2.55
2018-01-08T03:40:09.569Z,-2.55
2018-01-08T03:41:09.324Z,-2.58
2018-01-08T03:42:09.491Z,-2.55
2018-01-08T03:43:09.688Z,-2.62
2018-01-08T03:44:09.903Z,-2.58
2018-01-08T03:45:09.487Z,-2.58
2018-01-08T03:46:10.164Z,-2.62
2018-01-08T03:47:10.254Z,-2.64
2018-01-08T03:48:10.181Z,-2.64
2018-01-08T03:49:10.298Z,-2.72
2018-01-08T03:50:10.955Z,-2.72
2018-01-08T03:51:11.158Z,-2.62
2018-01-08T03:52:11.546Z,-2.64
2018-01-08T03:53:11.561Z,-2.75
2018-01-08T03:54:11.422Z,-2.73
2018-01-08T03:55:11.967Z,-2.64
2018-01-08T03:56:12.332Z,-2.81
2018-01-08T03:57:12.422Z,-2.73
2018-01-08T03:58:12.714Z,-2.79
2018-01-08T03:59:12.625Z,-2.75
2018-01-08T04:00:27.544Z,-2.75
2018-01-08T04:01:27.703Z,-2.79
2018-01-08T04:02:28.145Z,-2.81
2018-01-08T04:03:28.056Z,-2.81
2018-01-08T04:04:28.034Z,-2.79
2018-01-08T04:05:27.662Z,-2.78
2018-01-08T04:06:28.212Z,-2.67
2018-01-08T04:07:28.298Z,-2.64
2018-01-08T04:08:27.818Z,-2.62
2018-01-08T04:09:28.116Z,-2.68
2018-01-08T04:10:28.361Z,-2.68
2018-01-08T04:11:28.776Z,-2.78
2018-01-08T04:12:28.513Z,-2.81
2018-01-08T04:13:28.409Z,-2.82
2018-01-08T04:14:28.861Z,-2.81
2018-01-08T04:15:29.277Z,-2.85
2018-01-08T04:16:29.304Z,-2.81
2018-01-08T04:17:29.433Z,-2.9
2018-01-08T04:18:29.916Z,-2.88
2018-01-08T04:19:29.649Z,-2.85
2018-01-08T04:20:29.931Z,-2.86
2018-01-08T04:21:29.713Z,-2.82
2018-01-08T04:22:30.153Z,-2.88
2018-01-08T04:23:30.188Z,-2.91
2018-01-08T04:24:30.933Z,-3
2018-01-08T04:25:30.875Z,-2.94
2018-01-08T04:26:31.024Z,-3.07
2018-01-08T04:27:31.381Z,-3.01
2018-01-08T04:28:31.681Z,-3.07
2018-01-08T04:29:31.795Z,-3.04
2018-01-08T04:30:31.550Z,-3
2018-01-08T04:31:31.929Z,-2.99
2018-01-08T04:32:31.995Z,-3.03
2018-01-08T04:33:32.353Z,-3.03
2018-01-08T04:34:32.964Z,-3.03
2018-01-08T04:35:34.673Z,-3.03
2018-01-08T04:36:34.598Z,-3.04
2018-01-08T04:37:33.181Z,-3.07
2018-01-08T04:38:35.509Z,-3
2018-01-08T04:39:34.330Z,-2.96
2018-01-08T04:40:35.103Z,-2.97
2018-01-08T04:41:35.058Z,-2.97
2018-01-08T04:42:34.593Z,-2.99
2018-01-08T04:43:35.332Z,-2.97
2018-01-08T04:44:34.440Z,-2.88
2018-01-08T04:45:33.552Z,-2.99
2018-01-08T04:46:33.811Z,-3.04
2018-01-08T04:47:34.368Z,-2.97
2018-01-08T04:48:34.376Z,-3.03
2018-01-08T04:49:34.837Z,-3.01
2018-01-08T04:50:34.528Z,-3.04
2018-01-08T04:51:35.194Z,-3.03
2018-01-08T04:52:35.054Z,-3
2018-01-08T04:53:35.040Z,-3.01
2018-01-08T04:54:35.078Z,-3.01
2018-01-08T04:55:35.058Z,-2.96
2018-01-08T04:56:35.212Z,-2.99
2018-01-08T04:57:34.816Z,-3.04
2018-01-08T04:58:35.121Z,-2.97
2018-01-08T04:59:35.113Z,-3.01
2018-01-08T05:00:37.504Z,-3
2018-01-08T05:01:36.382Z,-3.01
2018-01-08T05:02:36.426Z,-3.01
2018-01-08T05:03:36.172Z,-3.01
2018-01-08T05:04:36.836Z,-3.06
2018-01-08T05:05:37.224Z,-3
2018-01-08T05:06:37.008Z,-3.04
2018-01-08T05:07:37.675Z,-3.01
2018-01-08T05:08:38.804Z,-3.04
2018-01-08T05:09:37.713Z,-3.04
2018-01-08T05:10:37.654Z,-3.11
2018-01-08T05:11:38.062Z,-3.01
2018-01-08T05:12:37.891Z,-3.06
2018-01-08T05:13:38.467Z,-3.07
2018-01-08T05:14:37.825Z,-3.06
2018-01-08T05:15:38.916Z,-3.07
2018-01-08T05:16:38.860Z,-3.14
2018-01-08T05:17:38.875Z,-3.21
2018-01-08T05:18:39.718Z,-3.19
2018-01-08T05:19:38.404Z,-3.15
2018-01-08T05:20:38.232Z,-3.07
2018-01-08T05:21:38.581Z,-3.12
2018-01-08T05:22:38.759Z,-3.09
2018-01-08T05:23:38.701Z,-3.12
2018-01-08T05:24:38.605Z,-3.06
2018-01-08T05:25:38.457Z,-3.09
2018-01-08T05:26:39.519Z,-3.12
2018-01-08T05:27:39.298Z,-3.07
2018-01-08T05:28:38.400Z,-3.04
2018-01-08T05:29:38.679Z,-3.04
2018-01-08T05:30:38.701Z,-3.06
2018-01-08T05:31:39.215Z,-3.09
2018-01-08T05:32:39.238Z,-3.06
2018-01-08T05:33:39.658Z,-3.01
2018-01-08T05:34:40.115Z,-2.99
2018-01-08T05:35:39.976Z,-3.03
2018-01-08T05:36:40.311Z,-3.11
2018-01-08T05:37:40.692Z,-3.07
2018-01-08T05:38:40.732Z,-3
2018-01-08T05:39:40.513Z,-2.99
2018-01-08T05:40:40.802Z,-2.97
2018-01-08T05:41:40.806Z,-3
2018-01-08T05:42:41.243Z,-3.01
2018-01-08T05:43:41.332Z,-3.01
2018-01-08T05:44:41.652Z,-3.03
2018-01-08T05:45:41.398Z,-3.01
2018-01-08T05:46:41.547Z,-3.06
2018-01-08T05:47:41.822Z,-3
2018-01-08T05:48:41.832Z,-2.99
2018-01-08T05:49:41.626Z,-2.97
2018-01-08T05:50:42.068Z,-2.96
2018-01-08T05:51:42.079Z,-2.9
2018-01-08T05:52:42.917Z,-3.03
2018-01-08T05:53:42.210Z,-3.07
2018-01-08T05:54:42.120Z,-3.01
2018-01-08T05:55:43.158Z,-3.03
2018-01-08T05:56:42.968Z,-3.09
2018-01-08T05:57:42.610Z,-3.04
2018-01-08T05:58:42.739Z,-2.99
2018-01-08T05:59:42.789Z,-2.96
2018-01-08T06:00:43.493Z,-3
2018-01-08T06:01:42.990Z,-3.01
2018-01-08T06:02:42.883Z,-2.99
2018-01-08T06:03:43.871Z,-3.01
2018-01-08T06:04:43.298Z,-3.04
2018-01-08T06:05:43.239Z,-3.04
2018-01-08T06:06:43.219Z,-3.07
2018-01-08T06:07:43.359Z,-3.03
2018-01-08T06:08:43.684Z,-3.03
2018-01-08T06:09:43.918Z,-3.04
2018-01-08T06:10:44.307Z,-3.01
2018-01-08T06:11:44.300Z,-3.14
2018-01-08T06:12:44.513Z,-3.15
2018-01-08T06:13:44.358Z,-3.18
2018-01-08T06:14:44.567Z,-3.17
2018-01-08T06:15:45.124Z,-3.21
2018-01-08T06:16:45.578Z,-3.19
2018-01-08T06:17:45.338Z,-3.24
2018-01-08T06:18:46.464Z,-3.14
2018-01-08T06:19:45.854Z,-3.24
2018-01-08T06:20:46.485Z,-3.21
2018-01-08T06:21:45.911Z,-3.21
2018-01-08T06:22:46.051Z,-3.22
2018-01-08T06:23:46.191Z,-3.19
2018-01-08T06:24:46.615Z,-3.19
2018-01-08T06:25:46.229Z,-3.22
2018-01-08T06:26:46.399Z,-3.21
2018-01-08T06:27:46.856Z,-3.28
2018-01-08T06:28:46.385Z,-3.28
2018-01-08T06:29:46.566Z,-3.3
2018-01-08T06:30:47.264Z,-3.29
2018-01-08T06:31:47.158Z,-3.38
2018-01-08T06:32:47.421Z,-3.28
2018-01-08T06:33:48.152Z,-3.3
2018-01-08T06:34:47.881Z,-3.24
2018-01-08T06:35:48.016Z,-3.28
2018-01-08T06:36:47.464Z,-3.22
2018-01-08T06:37:47.842Z,-3.22
2018-01-08T06:38:47.517Z,-3.24
2018-01-08T06:39:48.840Z,-3.25
2018-01-08T06:40:48.777Z,-3.3
2018-01-08T06:41:49.122Z,-3.33
2018-01-08T06:42:48.323Z,-3.3
2018-01-08T06:43:49.036Z,-3.32
2018-01-08T06:44:49.066Z,-3.38
2018-01-08T06:45:49.826Z,-3.29
2018-01-08T06:46:48.786Z,-3.3
2018-01-08T06:47:49.264Z,-3.36
2018-01-08T06:48:49.226Z,-3.43
2018-01-08T06:49:48.906Z,-3.5
2018-01-08T06:50:49.057Z,-3.57
2018-01-08T06:51:49.701Z,-3.58
2018-01-08T06:52:49.799Z,-3.56
2018-01-08T06:53:49.931Z,-3.42
2018-01-08T06:54:50.227Z,-3.39
2018-01-08T06:55:50.397Z,-3.36
2018-01-08T06:56:51.041Z,-3.38
2018-01-08T06:57:50.955Z,-3.4
2018-01-08T06:58:50.815Z,-3.4
2018-01-08T06:59:51.737Z,-3.3
2018-01-08T07:00:51.954Z,-3.38
2018-01-08T07:01:51.976Z,-3.35
2018-01-08T07:02:52.076Z,-3.39
2018-01-08T07:03:52.288Z,-3.35
2018-01-08T07:04:51.651Z,-3.35
2018-01-08T07:05:52.010Z,-3.36
2018-01-08T07:06:52.218Z,-3.36
2018-01-08T07:07:52.806Z,-3.45
2018-01-08T07:08:52.707Z,-3.5
2018-01-08T07:09:52.666Z,-3.57
2018-01-08T07:10:52.413Z,-3.54
2018-01-08T07:11:52.508Z,-3.42
2018-01-08T07:12:53.103Z,-3.54
2018-01-08T07:13:53.225Z,-3.43
2018-01-08T07:14:53.854Z,-3.48
2018-01-08T07:15:53.954Z,-3.54
2018-01-08T07:16:53.748Z,-3.48
2018-01-08T07:17:54.011Z,-3.56
2018-01-08T07:18:53.499Z,-3.51
2018-01-08T07:19:53.521Z,-3.6
2018-01-08T07:20:54.149Z,-3.56
2018-01-08T07:21:54.158Z,-3.54
2018-01-08T07:22:54.138Z,-3.66
2018-01-08T07:23:54.277Z,-3.63
2018-01-08T07:24:54.230Z,-3.54
2018-01-08T07:25:54.581Z,-3.51
2018-01-08T07:26:54.981Z,-3.56
2018-01-08T07:27:54.988Z,-3.6
2018-01-08T07:28:55.398Z,-3.51
2018-01-08T07:29:55.013Z,-3.57
2018-01-08T07:30:55.209Z,-3.5
2018-01-08T07:31:55.664Z,-3.6
2018-01-08T07:32:56.151Z,-3.6
2018-01-08T07:33:55.822Z,-3.65
2018-01-08T07:34:55.884Z,-3.75
2018-01-08T07:35:56.303Z,-3.71
2018-01-08T07:36:56.083Z,-3.75
2018-01-08T07:37:56.788Z,-3.86
2018-01-08T07:38:56.883Z,-3.88
2018-01-08T07:39:57.906Z,-3.88
2018-01-08T07:40:57.627Z,-3.96
2018-01-08T07:41:58.015Z,-3.93
2018-01-08T07:42:57.594Z,-3.91
2018-01-08T07:43:58.165Z,-3.9
2018-01-08T07:44:57.666Z,-3.88
2018-01-08T07:45:57.945Z,-3.93
2018-01-08T07:46:58.061Z,-3.83
2018-01-08T07:47:58.068Z,-3.88
2018-01-08T07:48:58.373Z,-3.82
2018-01-08T07:49:58.471Z,-3.68
2018-01-08T07:50:59.071Z,-3.8
2018-01-08T07:51:58.805Z,-3.72
2018-01-08T07:52:58.972Z,-3.66
2018-01-08T07:53:59.269Z,-3.6
2018-01-08T07:54:58.875Z,-3.65
2018-01-08T07:55:59.364Z,-3.6
2018-01-08T07:56:59.142Z,-3.51
2018-01-08T07:57:59.509Z,-3.5
2018-01-08T07:58:59.680Z,-3.57
2018-01-08T08:00:00.082Z,-3.54
2018-01-08T08:01:00.016Z,-3.56
2018-01-08T08:02:00.231Z,-3.56
2018-01-08T08:03:00.281Z,-3.48
2018-01-08T08:04:00.146Z,-3.36
2018-01-08T08:05:00.227Z,-3.42
2018-01-08T08:06:00.161Z,-3.45
2018-01-08T08:07:00.298Z,-3.39
2018-01-08T08:07:59.962Z,-3.39
2018-01-08T08:09:00.219Z,-3.36
2018-01-08T08:10:00.019Z,-3.43
2018-01-08T08:11:00.327Z,-3.4
2018-01-08T08:12:00.002Z,-3.39
2018-01-08T08:13:00.291Z,-3.35
2018-01-08T08:14:00.360Z,-3.3
2018-01-08T08:15:00.222Z,-3.35
2018-01-08T08:16:00.701Z,-3.32
2018-01-08T08:17:00.525Z,-3.22
2018-01-08T08:18:00.531Z,-3.3
2018-01-08T08:19:00.248Z,-3.24
2018-01-08T08:20:00.535Z,-3.3
2018-01-08T08:21:00.316Z,-3.3
2018-01-08T08:22:00.353Z,-3.24
2018-01-08T08:23:01.601Z,-3.15
2018-01-08T08:24:00.862Z,-3.28
2018-01-08T08:25:00.816Z,-3.22
2018-01-08T08:26:00.627Z,-3.18
2018-01-08T08:27:01.374Z,-3.21
2018-01-08T08:28:01.150Z,-3.17
2018-01-08T08:29:00.911Z,-3.06
2018-01-08T08:30:01.223Z,-2.99
2018-01-08T08:31:00.852Z,-3.04
2018-01-08T08:32:01.128Z,-3.04
2018-01-08T08:33:00.675Z,-2.9
2018-01-08T08:34:00.897Z,-2.86
2018-01-08T08:35:01.370Z,-2.88
2018-01-08T08:36:00.972Z,-2.76
2018-01-08T08:37:01.229Z,-2.88
2018-01-08T08:38:01.311Z,-2.81
2018-01-08T08:39:01.301Z,-2.81
2018-01-08T08:40:01.373Z,-2.88
2018-01-08T08:41:01.366Z,-2.81
2018-01-08T08:42:01.068Z,-2.68
2018-01-08T08:43:01.652Z,-2.61
2018-01-08T08:44:02.043Z,-2.65
2018-01-08T08:45:01.820Z,-2.61
2018-01-08T08:46:07.560Z,-2.58
2018-01-08T08:47:07.785Z,-2.61
2018-01-08T08:48:07.516Z,-2.58
2018-01-08T08:49:07.348Z,-2.5
2018-01-08T08:50:08.054Z,-2.42
2018-01-08T08:51:07.523Z,-2.4
2018-01-08T08:52:08.906Z,-2.34
2018-01-08T08:53:07.651Z,-2.28
2018-01-08T08:54:07.491Z,-2.24
2018-01-08T08:55:07.764Z,-2.25
2018-01-08T08:56:07.544Z,-2.23
2018-01-08T08:57:07.643Z,-2.18
2018-01-08T08:58:09.581Z,-2.12
2018-01-08T08:59:07.934Z,-2.18
2018-01-08T09:00:22.542Z,-2.17
2018-01-08T09:01:08.349Z,-2.09
2018-01-08T09:02:07.958Z,-2.06
2018-01-08T09:03:08.113Z,-2
2018-01-08T09:04:08.360Z,-1.99
2018-01-08T09:05:08.976Z,-1.96
2018-01-08T09:06:08.937Z,-1.86
2018-01-08T09:07:09.024Z,-1.82
2018-01-08T09:08:08.978Z,-1.79
2018-01-08T09:09:08.841Z,-1.66
2018-01-08T09:10:09.152Z,-1.61
2018-01-08T09:11:08.714Z,-1.5
2018-01-08T09:12:08.782Z,-1.48
2018-01-08T09:13:08.869Z,-1.24
2018-01-08T09:14:09.460Z,-1.14
2018-01-08T09:15:09.332Z,-1.22
2018-01-08T09:16:10.084Z,-1.09
2018-01-08T09:17:10.176Z,-1.13
2018-01-08T09:18:09.565Z,-1.13
2018-01-08T09:19:10.309Z,-0.66
2018-01-08T09:20:10.235Z,-0.04
2018-01-08T09:21:10.908Z,0.93
2018-01-08T09:22:10.491Z,1.86
2018-01-08T09:23:10.920Z,2.6
2018-01-08T09:24:10.391Z,3.03
2018-01-08T09:25:11.411Z,3.61
2018-01-08T09:26:11.418Z,3.97
2018-01-08T09:27:11.295Z,4.3
2018-01-08T09:28:11.788Z,4.36
2018-01-08T09:29:11.288Z,4.33
2018-01-08T09:30:11.513Z,4.54
2018-01-08T09:31:11.681Z,4.85
2018-01-08T09:32:12.497Z,5.08
2018-01-08T09:33:12.266Z,5.03
2018-01-08T09:34:12.098Z,5.23
2018-01-08T09:35:11.798Z,5.21
2018-01-08T09:36:13.108Z,5.13
2018-01-08T09:37:13.235Z,5.16
2018-01-08T09:38:13.171Z,5.3
2018-01-08T09:39:11.784Z,5.24
2018-01-08T09:40:11.963Z,5.08
2018-01-08T09:41:12.082Z,5.12
2018-01-08T09:42:12.535Z,5.16
2018-01-08T09:43:11.981Z,5.03
2018-01-08T09:44:12.824Z,5.06
2018-01-08T09:45:12.347Z,4.98
2018-01-08T09:46:12.455Z,4.87
2018-01-08T09:47:12.194Z,4.65
2018-01-08T09:48:12.975Z,4.46
2018-01-08T09:49:13.339Z,4.18
2018-01-08T09:50:13.352Z,3.97
2018-01-08T09:51:12.770Z,3.94
2018-01-08T09:52:12.744Z,3.92
2018-01-08T09:53:13.042Z,3.72
2018-01-08T09:54:13.061Z,3.76
2018-01-08T09:55:13.077Z,3.64
2018-01-08T09:56:13.044Z,3.56
2018-01-08T09:57:13.584Z,3.42
2018-01-08T09:58:14.284Z,3.34
2018-01-08T09:59:13.865Z,3.14
2018-01-08T10:00:28.446Z,3.2
2018-01-08T10:01:13.382Z,3.4
2018-01-08T10:02:13.855Z,3.64
2018-01-08T10:03:13.821Z,3.92
2018-01-08T10:04:13.315Z,4.3
2018-01-08T10:05:14.068Z,4.79
2018-01-08T10:06:14.213Z,5.24
2018-01-08T10:07:14.338Z,5.46
2018-01-08T10:08:14.816Z,5.67
2018-01-08T10:09:14.083Z,5.87
2018-01-08T10:11:13.942Z,6.52
2018-01-08T10:12:13.894Z,6.88
2018-01-08T10:13:14.431Z,7.05
2018-01-08T10:14:14.639Z,7.36
2018-01-08T10:15:15.216Z,7.45
2018-01-08T10:16:15.031Z,7.29
2018-01-08T10:17:15.003Z,7.01
2018-01-08T10:18:15.180Z,6.9
2018-01-08T10:19:15.509Z,6.72
2018-01-08T10:20:15.651Z,6.64
2018-01-08T10:21:15.749Z,6.47
2018-01-08T10:22:15.297Z,6.42
2018-01-08T10:23:15.755Z,6.18
2018-01-08T10:24:15.917Z,6.24
2018-01-08T10:25:16.121Z,6.46
2018-01-08T10:26:16.158Z,6.49
2018-01-08T10:27:16.448Z,6.15
2018-01-08T10:28:16.586Z,6.1
2018-01-08T10:29:16.203Z,6.03
2018-01-08T10:30:17.014Z,5.89
2018-01-08T10:31:17.085Z,5.96
2018-01-08T10:32:17.054Z,6.13
2018-01-08T10:33:17.129Z,6.21
2018-01-08T10:34:17.105Z,6.55
2018-01-08T10:35:17.697Z,6.61
2018-01-08T10:36:18.215Z,6.7
2018-01-08T10:37:17.461Z,6.94
2018-01-08T10:38:18.548Z,7.15
2018-01-08T10:39:17.753Z,7.34
2018-01-08T10:40:33.372Z,7.22
2018-01-08T10:41:19.112Z,7.36
2018-01-08T10:42:19.141Z,7.45
2018-01-08T10:43:17.593Z,7.56
2018-01-08T10:44:17.875Z,7.47
2018-01-08T10:45:18.040Z,7.68
2018-01-08T10:46:18.345Z,7.74
2018-01-08T10:47:18.126Z,7.95
2018-01-08T10:48:18.885Z,8.22
2018-01-08T10:49:18.810Z,8.49
2018-01-08T10:50:18.347Z,8.25
2018-01-08T10:51:18.348Z,8.21
2018-01-08T10:52:19.089Z,8.21
2018-01-08T10:53:18.632Z,8.34
2018-01-08T10:54:18.653Z,8.47
2018-01-08T10:55:18.977Z,8.76
2018-01-08T10:56:19.171Z,8.79
2018-01-08T10:57:19.111Z,8.89
2018-01-08T10:58:19.386Z,9
2018-01-08T10:59:19.846Z,9
2018-01-08T11:00:24.574Z,9.23
2018-01-08T11:01:24.752Z,9.21
2018-01-08T11:02:25.007Z,9.09
2018-01-08T11:03:25.435Z,9.03
2018-01-08T11:04:25.943Z,8.44
2018-01-08T11:05:25.744Z,8.28
2018-01-08T11:06:25.889Z,8.01
2018-01-08T11:07:26.260Z,8.04
2018-01-08T11:08:26.072Z,8.22
2018-01-08T11:09:25.717Z,8.16
2018-01-08T11:10:26.540Z,8.28
2018-01-08T11:11:26.804Z,8.31
2018-01-08T11:12:26.794Z,8.28
2018-01-08T11:13:41.642Z,8.17
2018-01-08T11:14:26.761Z,8.14
2018-01-08T11:15:27.578Z,8.44
2018-01-08T11:16:27.855Z,8.58
2018-01-08T11:17:28.147Z,8.74
2018-01-08T11:18:28.398Z,8.67
2018-01-08T11:19:27.689Z,8.54
2018-01-08T11:20:28.296Z,8.35
2018-01-08T11:21:27.584Z,7.95
2018-01-08T11:22:28.332Z,7.85
2018-01-08T11:23:26.929Z,7.71
2018-01-08T11:24:26.869Z,7.93
2018-01-08T11:25:27.533Z,8.22
2018-01-08T11:26:27.508Z,8.25
2018-01-08T11:27:27.885Z,8.04
2018-01-08T11:28:28.276Z,8.13
2018-01-08T11:29:27.782Z,8.24
2018-01-08T11:30:28.120Z,8.24
2018-01-08T11:31:28.863Z,8.28
2018-01-08T11:32:28.850Z,7.99
2018-01-08T11:33:28.966Z,8.04
2018-01-08T11:34:29.006Z,7.55
2018-01-08T11:35:29.304Z,7.45
2018-01-08T11:36:29.320Z,7.51
2018-01-08T11:37:29.806Z,7.45
2018-01-08T11:38:30.438Z,7.37
2018-01-08T11:39:30.284Z,7.3
2018-01-08T11:40:30.017Z,7.26
2018-01-08T11:41:29.900Z,7.19
2018-01-08T11:42:29.739Z,6.91
2018-01-08T11:43:31.148Z,6.91
2018-01-08T11:44:30.043Z,6.68
2018-01-08T11:45:31.129Z,6.65
2018-01-08T11:46:30.765Z,6.75
2018-01-08T11:47:30.738Z,6.9
2018-01-08T11:48:31.264Z,6.7
2018-01-08T11:49:30.355Z,6.72
2018-01-08T11:50:30.172Z,6.47
2018-01-08T11:51:30.722Z,6.51
2018-01-08T11:52:30.847Z,6.6
2018-01-08T11:53:31.031Z,6.68
2018-01-08T11:54:31.682Z,6.61
2018-01-08T11:55:31.712Z,6.43
2018-01-08T11:56:31.948Z,6.2
2018-01-08T11:57:32.368Z,6.14
2018-01-08T11:58:33.096Z,5.82
2018-01-08T11:59:33.009Z,5.78
2018-01-08T12:00:32.637Z,5.75
2018-01-08T12:01:33.895Z,5.59
2018-01-08T12:02:33.432Z,5.37
2018-01-08T12:03:33.058Z,5.15
2018-01-08T12:04:32.563Z,4.88
2018-01-08T12:05:33.173Z,4.79
2018-01-08T12:06:33.608Z,4.54
2018-01-08T12:07:33.884Z,4.46
2018-01-08T12:08:33.992Z,4.2
2018-01-08T12:09:33.867Z,4.1
2018-01-08T12:10:32.757Z,4.18
2018-01-08T12:11:32.168Z,4.17
2018-01-08T12:12:32.761Z,4.22
2018-01-08T12:13:33.375Z,4.12
2018-01-08T12:14:33.084Z,4.17
2018-01-08T12:15:35.036Z,4.11
2018-01-08T12:16:33.629Z,4.14
2018-01-08T12:17:33.989Z,3.94
2018-01-08T12:18:33.780Z,3.92
2018-01-08T12:19:33.606Z,3.71
2018-01-08T12:20:33.546Z,3.58
2018-01-08T12:21:33.875Z,3.49
2018-01-08T12:22:33.911Z,3.26
2018-01-08T12:23:35.115Z,3.17
2018-01-08T12:24:34.595Z,3.11
2018-01-08T12:25:35.193Z,2.96
2018-01-08T12:26:36.483Z,2.9
2018-01-08T12:27:34.890Z,2.76
2018-01-08T12:28:35.036Z,2.69
2018-01-08T12:29:34.761Z,2.48
2018-01-08T12:30:34.674Z,2.33
2018-01-08T12:31:34.678Z,2.26
2018-01-08T12:32:34.350Z,2.18
2018-01-08T12:33:34.786Z,2.08
2018-01-08T12:34:35.128Z,1.94
2018-01-08T12:35:34.913Z,1.97
2018-01-08T12:36:35.815Z,1.86
2018-01-08T12:37:36.097Z,1.9
2018-01-08T12:38:35.283Z,1.84
2018-01-08T12:39:35.622Z,1.71
2018-01-08T12:40:35.308Z,1.83
2018-01-08T12:41:37.585Z,1.72
2018-01-08T12:42:37.084Z,1.71
2018-01-08T12:43:37.980Z,1.61
2018-01-08T12:44:38.041Z,1.57
2018-01-08T12:45:38.049Z,1.61
2018-01-08T12:46:38.033Z,1.57
2018-01-08T12:47:38.012Z,1.58
2018-01-08T12:48:38.332Z,1.46
2018-01-08T12:49:38.096Z,1.6
2018-01-08T12:50:38.108Z,1.51
2018-01-08T12:51:38.109Z,1.47
2018-01-08T12:52:38.310Z,1.47
2018-01-08T12:53:38.143Z,1.5
2018-01-08T12:54:36.930Z,1.39
2018-01-08T12:55:37.688Z,1.46
2018-01-08T12:56:37.573Z,1.51
2018-01-08T12:57:37.665Z,1.4
2018-01-08T12:58:38.271Z,1.48
2018-01-08T12:59:38.073Z,1.51
2018-01-08T13:00:38.187Z,1.39
2018-01-08T13:01:38.147Z,1.51
2018-01-08T13:02:36.602Z,1.46
2018-01-08T13:03:37.682Z,1.48
2018-01-08T13:04:36.993Z,1.47
2018-01-08T13:05:38.167Z,1.46
2018-01-08T13:06:36.441Z,1.42
2018-01-08T13:07:37.708Z,1.44
2018-01-08T13:08:38.849Z,1.4
2018-01-08T13:09:37.144Z,1.44